Time;durP1;ratioP1;P1;durP2;ratioP2;P2;SDS_P1;SDS_P2;PMS_P1;PMS_P2;Temp;Humidity;BMP_temperature;BMP_pressure;BME280_temperature;BME280_humidity;BME280_pressure;Samples;Min_cycle;Max_cycle;Signal;HPM_P1;HPM_P2
2022/12/03 00:00:03;;;;;;;;;;;;;;;;;;5011938;28;1978;-73
2022/12/03 00:02:30;;;;;;;;;;;;;;;;;;5011537;28;705;-73
2022/12/03 00:04:57;;;;;;;;;;;;;;;;;;4994449;28;1124;-74
2022/12/03 00:07:23;;;;;;;;;;;;;;;;;;5011841;28;728;-74
2022/12/03 00:09:49;;;;;;;;;;;;;;;;;;4994172;28;1314;-73
2022/12/03 00:12:18;;;;;;;;;;;;;;;;;;5011460;28;834;-73
2022/12/03 00:14:44;;;;;;;;;;;;;;;;;;4994128;28;1324;-75
2022/12/03 00:17:10;;;;;;;;;;;;;;;;;;5010834;28;1258;-74
2022/12/03 00:19:36;;;;;;;;;;;;;;;;;;5011820;28;1918;-74
2022/12/03 00:22:02;;;;;;;;;;;;;;;;;;5011341;28;826;-75
2022/12/03 00:24:29;;;;;;;;;;;;;;;;;;5011719;28;1081;-74
2022/12/03 00:26:55;;;;;;;;;;;;;;;;;;4994363;28;1210;-74
2022/12/03 00:29:23;;;;;;;;;;;;;;;;;;5011767;28;1360;-75
2022/12/03 00:31:49;;;;;;;;;;;;;;;;;;4993510;28;1273;-74
2022/12/03 00:34:15;;;;;;;;;;;;;;;;;;5011630;28;1116;-73
2022/12/03 00:36:41;;;;;;;;;;;;;;;;;;5011684;28;886;-74
2022/12/03 00:39:07;;;;;;;;;;;;;;;;;;4993958;28;1354;-74
2022/12/03 00:41:34;;;;;;;;;;;;;;;;;;5010849;28;2005;-74
2022/12/03 00:44:00;;;;;;;;;;;;;;;;;;5011586;28;1069;-74
2022/12/03 00:46:28;;;;;;;;;;;;;;;;;;5011547;28;898;-74
2022/12/03 00:48:54;;;;;;;;;;;;;;;;;;5011633;28;1310;-73
2022/12/03 00:51:20;;;;;;;;;;;;;;;;;;5010984;28;870;-71
2022/12/03 00:53:46;;;;;;;;;;;;;;;;;;5011493;28;1088;-73
2022/12/03 00:56:13;;;;;;;;;;;;;;;;;;5011700;28;840;-73
2022/12/03 00:58:39;;;;;;;;;;;;;;;;;;5011406;28;1334;-74
2022/12/03 01:01:05;;;;;;;;;;;;;;;;;;5011471;28;1914;-73
2022/12/03 01:03:33;;;;;;;;;;;;;;;;;;5010980;28;1056;-72
2022/12/03 01:05:59;;;;;;;;;;;;;;;;;;5011265;28;1127;-73
2022/12/03 01:08:25;;;;;;;;;;;;;;;;;;5011216;28;1390;-74
2022/12/03 01:10:51;;;;;;;;;;;;;;;;;;5011105;28;1124;-74
2022/12/03 01:13:17;;;;;;;;;;;;;;;;;;5010706;28;1117;-74
2022/12/03 01:15:44;;;;;;;;;;;;;;;;;;5011342;28;1310;-74
2022/12/03 01:18:10;;;;;;;;;;;;;;;;;;5011122;28;996;-74
2022/12/03 01:20:37;;;;;;;;;;;;;;;;;;5014262;28;1908;-74
2022/12/03 01:23:03;;;;;;;;;;;;;;;;;;4996664;28;1206;-74
2022/12/03 01:25:30;;;;;;;;;;;;;;;;;;5015115;28;918;-74
2022/12/03 01:27:56;;;;;;;;;;;;;;;;;;5015066;28;1116;-73
2022/12/03 01:30:22;;;;;;;;;;;;;;;;;;5014943;28;1391;-74
2022/12/03 01:32:47;;;;;;;;;;;;;;;;;;5013362;28;1456;-74
2022/12/03 01:35:13;;;;;;;;;;;;;;;;;;5015044;28;870;-73
2022/12/03 01:37:41;;;;;;;;;;;;;;;;;;5014739;28;1256;-73
2022/12/03 01:40:08;;;;;;;;;;;;;;;;;;5014421;28;1914;-74
2022/12/03 01:42:35;;;;;;;;;;;;;;;;;;4996675;28;942;-74
2022/12/03 01:45:01;;;;;;;;;;;;;;;;;;5014344;28;973;-74
2022/12/03 01:47:28;;;;;;;;;;;;;;;;;;5014850;28;786;-75
2022/12/03 01:49:55;;;;;;;;;;;;;;;;;;5014754;28;1325;-73
2022/12/03 01:52:22;;;;;;;;;;;;;;;;;;5014026;28;845;-73
2022/12/03 01:54:50;;;;;;;;;;;;;;;;;;4996666;28;1164;-74
2022/12/03 01:57:21;;;;;;;;;;;;;;;;;;5014818;28;621;-73
2022/12/03 01:59:47;;;;;;;;;;;;;;;;;;5014203;28;1317;-73
2022/12/03 02:02:14;;;;;;;;;;;;;;;;;;5013760;28;1974;-73
2022/12/03 02:04:40;;;;;;;;;;;;;;;;;;4996677;28;1136;-74
2022/12/03 02:07:16;;;;;;;;;;;;;;;;;;5014271;28;786;-74
2022/12/03 02:09:43;;;;;;;;;;;;;;;;;;5013988;28;1323;-73
2022/12/03 02:12:10;;;;;;;;;;;;;;;;;;5013571;28;898;-74
2022/12/03 02:14:37;;;;;;;;;;;;;;;;;;5012953;28;1263;-74
2022/12/03 02:17:03;;;;;;;;;;;;;;;;;;5012921;28;1133;-74
2022/12/03 02:19:29;;;;;;;;;;;;;;;;;;5014120;28;1293;-74
2022/12/03 02:21:57;;;;;;;;;;;;;;;;;;5013274;28;1910;-72
2022/12/03 02:24:24;;;;;;;;;;;;;;;;;;5013748;28;1068;-74
2022/12/03 02:26:52;;;;;;;;;;;;;;;;;;5013777;28;994;-74
2022/12/03 02:29:18;;;;;;;;;;;;;;;;;;5013747;28;1386;-74
2022/12/03 02:31:44;;;;;;;;;;;;;;;;;;5012780;28;1127;-73
2022/12/03 02:34:11;;;;;;;;;;;;;;;;;;5012284;28;1160;-73
2022/12/03 02:36:37;;;;;;;;;;;;;;;;;;5013708;28;1052;-76
2022/12/03 02:39:03;;;;;;;;;;;;;;;;;;5012144;28;1333;-75
2022/12/03 02:44:15;;;;;;;;;;;;;;;;;;5013972;28;981;-76
2022/12/03 02:46:41;;;;;;;;;;;;;;;;;;5015030;28;965;-73
2022/12/03 02:49:07;;;;;;;;;;;;;;;;;;5017761;28;1417;-74
2022/12/03 02:51:34;;;;;;;;;;;;;;;;;;5015304;28;1166;-73
2022/12/03 02:54:00;;;;;;;;;;;;;;;;;;5014149;28;779;-72
2022/12/03 02:56:27;;;;;;;;;;;;;;;;;;5013658;28;1068;-72
2022/12/03 02:58:54;;;;;;;;;;;;;;;;;;5013166;28;1310;-70
2022/12/03 03:01:21;;;;;;;;;;;;;;;;;;5012476;28;1973;-71
2022/12/03 03:03:48;;;;;;;;;;;;;;;;;;5012670;28;1214;-74
2022/12/03 03:06:14;;;;;;;;;;;;;;;;;;5012094;28;1177;-74
2022/12/03 03:08:40;;;;;;;;;;;;;;;;;;5011714;28;1336;-73
2022/12/03 03:11:07;;;;;;;;;;;;;;;;;;5013146;28;949;-72
2022/12/03 03:13:34;;;;;;;;;;;;;;;;;;5012366;28;1056;-74
2022/12/03 03:16:01;;;;;;;;;;;;;;;;;;5012926;28;1056;-72
2022/12/03 03:18:28;;;;;;;;;;;;;;;;;;5013065;28;1320;-74
2022/12/03 03:20:55;;;;;;;;;;;;;;;;;;5012917;28;1914;-75
2022/12/03 03:23:22;;;;;;;;;;;;;;;;;;4994443;28;1201;-73
2022/12/03 03:25:49;;;;;;;;;;;;;;;;;;5012313;28;1543;-74
2022/12/03 03:28:16;;;;;;;;;;;;;;;;;;5012926;28;816;-74
2022/12/03 03:33:21;;;;;;;;;;;;;;;;;;4973867;28;1933;-78
2022/12/03 03:35:49;;;;;;;;;;;;;;;;;;4979107;28;1279;-79
2022/12/03 03:38:15;;;;;;;;;;;;;;;;;;5000911;28;1025;-79
2022/12/03 03:40:41;;;;;;;;;;;;;;;;;;5000985;28;1982;-79
2022/12/03 03:43:08;;;;;;;;;;;;;;;;;;4998234;28;1342;-79
2022/12/03 03:45:34;;;;;;;;;;;;;;;;;;4999782;28;1340;-79
2022/12/03 03:48:00;;;;;;;;;;;;;;;;;;4999703;28;1057;-79
2022/12/03 03:50:26;;;;;;;;;;;;;;;;;;4999968;28;747;-79
2022/12/03 03:52:54;;;;;;;;;;;;;;;;;;4981212;28;1493;-79
2022/12/03 03:55:20;;;;;;;;;;;;;;;;;;4981391;28;1229;-78
2022/12/03 03:57:47;;;;;;;;;;;;;;;;;;4981448;28;870;-78
2022/12/03 04:00:13;;;;;;;;;;;;;;;;;;4998118;28;1052;-78
2022/12/03 04:02:40;;;;;;;;;;;;;;;;;;4996784;28;1977;-78
2022/12/03 04:05:06;;;;;;;;;;;;;;;;;;4997989;28;1060;-78
2022/12/03 04:07:32;;;;;;;;;;;;;;;;;;4998182;28;1088;-78
2022/12/03 04:12:53;;;;;;;;;;;;;;;;;;4998051;28;1013;-79
2022/12/03 04:12:54;;;;;;;;;;;;;;;;;;4997499;28;1412;-78
2022/12/03 04:15:21;;;;;;;;;;;;;;;;;;4998092;28;791;-78
2022/12/03 04:18:41;;;;;;;;;;;;;;;;;;4997698;28;1052;-78
2022/12/03 04:20:33;;;;;;;;;;;;;;;;;;4997696;28;1051;-78
2022/12/03 04:22:58;;;;;;;;;;;;;;;;;;4996230;28;1260;-78
2022/12/03 04:36:33;;;;;;;;;;;;;;;;;;5011485;28;1091;-79
2022/12/03 04:39:00;;;;;;;;;;;;;;;;;;5019856;28;850;-78
2022/12/03 04:41:27;;;;;;;;;;;;;;;;;;5018986;28;2131;-78
2022/12/03 04:46:37;;;;;;;;;;;;;;;;;;5018918;28;692;-78
2022/12/03 04:49:03;;;;;;;;;;;;;;;;;;5019877;28;1084;-78
2022/12/03 04:51:30;;;;;;;;;;;;;;;;;;5017670;28;1345;-78
2022/12/03 04:53:56;;;;;;;;;;;;;;;;;;5021009;28;1052;-78
2022/12/03 04:56:22;;;;;;;;;;;;;;;;;;5020505;28;1107;-78
2022/12/03 04:58:49;;;;;;;;;;;;;;;;;;5017724;28;1155;-79
2022/12/03 05:01:16;;;;;;;;;;;;;;;;;;5014793;28;1981;-76
2022/12/03 05:03:42;;;;;;;;;;;;;;;;;;4998838;28;1228;-78
2022/12/03 05:06:08;;;;;;;;;;;;;;;;;;5017194;28;1151;-78
2022/12/03 05:08:34;;;;;;;;;;;;;;;;;;5017527;28;1064;-78
2022/12/03 05:11:01;;;;;;;;;;;;;;;;;;5017636;28;1339;-79
2022/12/03 05:13:27;;;;;;;;;;;;;;;;;;5017757;28;1121;-78
2022/12/03 05:15:54;;;;;;;;;;;;;;;;;;5020134;28;917;-78
2022/12/03 05:18:21;;;;;;;;;;;;;;;;;;5020367;28;1064;-78
2022/12/03 05:20:47;;;;;;;;;;;;;;;;;;5019452;28;1303;-78
2022/12/03 05:23:13;;;;;;;;;;;;;;;;;;5019049;28;1918;-78
2022/12/03 05:25:40;;;;;;;;;;;;;;;;;;5020921;28;1160;-78
2022/12/03 05:28:06;;;;;;;;;;;;;;;;;;5020568;28;945;-78
2022/12/03 05:30:32;;;;;;;;;;;;;;;;;;5020333;28;1449;-78
2022/12/03 05:33:00;;;;;;;;;;;;;;;;;;5016071;28;1449;-78
2022/12/03 05:35:26;;;;;;;;;;;;;;;;;;5018542;28;1289;-78
2022/12/03 05:37:52;;;;;;;;;;;;;;;;;;5019934;28;826;-78
2022/12/03 05:40:19;;;;;;;;;;;;;;;;;;5019043;28;1084;-78
2022/12/03 05:42:53;;;;;;;;;;;;;;;;;;5018286;28;1952;-77
2022/12/03 05:45:19;;;;;;;;;;;;;;;;;;5019883;28;1144;-78
2022/12/03 05:47:46;;;;;;;;;;;;;;;;;;5018890;28;1060;-78
2022/12/03 05:50:13;;;;;;;;;;;;;;;;;;5019039;28;1088;-79
2022/12/03 05:52:39;;;;;;;;;;;;;;;;;;5018122;28;1384;-78
2022/12/03 05:55:06;;;;;;;;;;;;;;;;;;5018084;28;1092;-78
2022/12/03 05:57:32;;;;;;;;;;;;;;;;;;5018366;28;809;-78
2022/12/03 05:59:58;;;;;;;;;;;;;;;;;;5014249;28;1369;-77
2022/12/03 06:02:25;;;;;;;;;;;;;;;;;;4975785;28;1987;-74
2022/12/03 06:04:51;;;;;;;;;;;;;;;;;;4944871;28;1457;-74
2022/12/03 06:07:19;;;;;;;;;;;;;;;;;;4933199;28;1160;-74
2022/12/03 06:09:45;;;;;;;;;;;;;;;;;;4946783;28;1382;-74
2022/12/03 06:12:12;;;;;;;;;;;;;;;;;;4939997;28;1477;-74
2022/12/03 06:14:39;;;;;;;;;;;;;;;;;;4958397;28;894;-76
2022/12/03 06:17:05;;;;;;;;;;;;;;;;;;4951942;28;1465;-74
2022/12/03 06:19:32;;;;;;;;;;;;;;;;;;4968736;28;1126;-74
2022/12/03 06:21:58;;;;;;;;;;;;;;;;;;4985766;28;1890;-75
2022/12/03 06:24:26;;;;;;;;;;;;;;;;;;5007635;28;1226;-75
2022/12/03 06:26:52;;;;;;;;;;;;;;;;;;5015996;28;1099;-78
2022/12/03 06:29:18;;;;;;;;;;;;;;;;;;5010299;28;1460;-77
2022/12/03 06:31:44;;;;;;;;;;;;;;;;;;5005162;28;1457;-77
2022/12/03 06:34:11;;;;;;;;;;;;;;;;;;5013029;28;2047;-77
2022/12/03 06:36:37;;;;;;;;;;;;;;;;;;4988947;28;1115;-73
2022/12/03 06:39:04;;;;;;;;;;;;;;;;;;4947773;28;912;-73
2022/12/03 06:41:32;;;;;;;;;;;;;;;;;;4949089;28;2003;-74
2022/12/03 06:43:58;;;;;;;;;;;;;;;;;;4948684;28;1544;-74
2022/12/03 06:46:25;;;;;;;;;;;;;;;;;;4976415;28;1359;-77
2022/12/03 06:48:51;;;;;;;;;;;;;;;;;;4978167;28;1451;-75
2022/12/03 06:51:18;;;;;;;;;;;;;;;;;;4945743;28;1448;-74
2022/12/03 06:53:44;;;;;;;;;;;;;;;;;;4949338;28;889;-74
2022/12/03 06:56:11;;;;;;;;;;;;;;;;;;4947200;28;1583;-74
2022/12/03 06:58:38;;;;;;;;;;;;;;;;;;4949014;28;869;-74
2022/12/03 07:01:05;;;;;;;;;;;;;;;;;;4942780;28;1283;-74
2022/12/03 07:03:32;;;;;;;;;;;;;;;;;;4946386;28;1942;-75
2022/12/03 07:06:11;;;;;;;;;;;;;;;;;;4921247;28;1320;-75
2022/12/03 07:08:38;;;;;;;;;;;;;;;;;;4910596;28;995;-81
2022/12/03 07:11:04;;;;;;;;;;;;;;;;;;4928909;28;1302;-76
2022/12/03 07:13:52;;;;;;;;;;;;;;;;;;4949461;28;1504;-77
2022/12/03 07:16:18;;;;;;;;;;;;;;;;;;4969673;28;1558;-78
2022/12/03 07:18:45;;;;;;;;;;;;;;;;;;4985248;28;1179;-77
2022/12/03 07:21:12;;;;;;;;;;;;;;;;;;4952640;28;1388;-78
2022/12/03 07:23:39;;;;;;;;;;;;;;;;;;4941869;28;2004;-77
2022/12/03 07:26:05;;;;;;;;;;;;;;;;;;4948544;28;1425;-77
2022/12/03 07:28:32;;;;;;;;;;;;;;;;;;4954026;28;957;-77
2022/12/03 07:30:59;;;;;;;;;;;;;;;;;;4948580;28;1393;-78
2022/12/03 07:33:26;;;;;;;;;;;;;;;;;;4948178;28;1084;-78
2022/12/03 07:35:53;;;;;;;;;;;;;;;;;;4947996;28;1461;-79
2022/12/03 07:38:19;;;;;;;;;;;;;;;;;;4945257;28;1244;-78
2022/12/03 07:40:46;;;;;;;;;;;;;;;;;;4938711;28;1373;-78
2022/12/03 07:43:13;;;;;;;;;;;;;;;;;;4947919;28;2000;-77
2022/12/03 07:45:39;;;;;;;;;;;;;;;;;;4949201;28;1111;-78
2022/12/03 07:48:07;;;;;;;;;;;;;;;;;;4945428;28;775;-77
2022/12/03 07:50:34;;;;;;;;;;;;;;;;;;4944579;28;822;-78
2022/12/03 07:53:01;;;;;;;;;;;;;;;;;;4960675;28;1313;-79
2022/12/03 07:55:27;;;;;;;;;;;;;;;;;;4930553;28;1046;-78
2022/12/03 07:57:54;;;;;;;;;;;;;;;;;;4938127;28;1150;-78
2022/12/03 08:00:21;;;;;;;;;;;;;;;;;;4942863;28;949;-79
2022/12/03 08:02:48;;;;;;;;;;;;;;;;;;4948614;28;2003;-78
2022/12/03 08:05:16;;;;;;;;;;;;;;;;;;4951694;28;898;-79
2022/12/03 08:07:42;;;;;;;;;;;;;;;;;;4948287;28;894;-79
2022/12/03 08:10:09;;;;;;;;;;;;;;;;;;4947378;28;1013;-78
2022/12/03 08:12:39;;;;;;;;;;;;;;;;;;4946938;28;1314;-79
2022/12/03 08:15:09;;;;;;;;;;;;;;;;;;4939740;28;929;-79
2022/12/03 08:17:38;;;;;;;;;;;;;;;;;;4944117;28;1134;-79
2022/12/03 08:20:05;;;;;;;;;;;;;;;;;;4945557;28;819;-78
2022/12/03 08:22:33;;;;;;;;;;;;;;;;;;4946581;28;1935;-79
2022/12/03 08:25:00;;;;;;;;;;;;;;;;;;4946909;28;870;-79
2022/12/03 08:27:26;;;;;;;;;;;;;;;;;;4946051;28;1080;-79
2022/12/03 08:29:53;;;;;;;;;;;;;;;;;;4944536;28;1088;-79
2022/12/03 08:32:19;;;;;;;;;;;;;;;;;;4938766;28;1346;-79
2022/12/03 08:34:46;;;;;;;;;;;;;;;;;;4937365;28;1247;-78
2022/12/03 08:37:14;;;;;;;;;;;;;;;;;;4949065;28;946;-79
2022/12/03 08:39:43;;;;;;;;;;;;;;;;;;4945753;28;874;-78
2022/12/03 08:44:55;;;;;;;;;;;;;;;;;;4947874;28;882;-79
2022/12/03 08:47:22;;;;;;;;;;;;;;;;;;4926067;28;1166;-79
2022/12/03 08:49:52;;;;;;;;;;;;;;;;;;4943720;28;1123;-78
2022/12/03 08:52:20;;;;;;;;;;;;;;;;;;4940728;28;1448;-78
2022/12/03 08:54:50;;;;;;;;;;;;;;;;;;4945258;28;901;-79
2022/12/03 08:57:22;;;;;;;;;;;;;;;;;;4945553;28;977;-78
2022/12/03 08:59:49;;;;;;;;;;;;;;;;;;4947342;28;949;-78
2022/12/03 09:02:18;;;;;;;;;;;;;;;;;;4940733;28;2005;-79
2022/12/03 09:04:45;;;;;;;;;;;;;;;;;;4945946;28;874;-78
2022/12/03 09:07:11;;;;;;;;;;;;;;;;;;4939725;28;823;-78
2022/12/03 09:09:38;;;;;;;;;;;;;;;;;;4918670;28;1050;-78
2022/12/03 09:12:06;;;;;;;;;;;;;;;;;;4942525;28;1314;-78
2022/12/03 09:14:33;;;;;;;;;;;;;;;;;;4945261;28;1100;-78
2022/12/03 09:16:59;;;;;;;;;;;;;;;;;;4944532;28;1108;-77
2022/12/03 09:19:26;;;;;;;;;;;;;;;;;;4927474;28;1265;-78
2022/12/03 09:21:53;;;;;;;;;;;;;;;;;;4945068;28;1444;-77
2022/12/03 09:24:19;;;;;;;;;;;;;;;;;;4944838;28;1934;-77
2022/12/03 09:26:46;;;;;;;;;;;;;;;;;;4937534;28;867;-76
2022/12/03 09:29:13;;;;;;;;;;;;;;;;;;4948253;28;1013;-78
2022/12/03 09:31:40;;;;;;;;;;;;;;;;;;4936142;28;1461;-78
2022/12/03 09:34:07;;;;;;;;;;;;;;;;;;4935754;28;931;-74
2022/12/03 09:36:33;;;;;;;;;;;;;;;;;;4942395;28;1157;-74
2022/12/03 09:39:00;;;;;;;;;;;;;;;;;;4943296;28;886;-73
2022/12/03 09:41:26;;;;;;;;;;;;;;;;;;4942509;28;1395;-74
2022/12/03 09:43:53;;;;;;;;;;;;;;;;;;4940090;28;2006;-74
2022/12/03 09:46:21;;;;;;;;;;;;;;;;;;4950164;28;858;-74
2022/12/03 09:48:47;;;;;;;;;;;;;;;;;;4950049;28;901;-75
2022/12/03 09:51:14;;;;;;;;;;;;;;;;;;4948179;28;1411;-74
2022/12/03 09:53:40;;;;;;;;;;;;;;;;;;4946342;28;1117;-73
2022/12/03 09:56:09;;;;;;;;;;;;;;;;;;4949628;28;866;-74
2022/12/03 09:58:36;;;;;;;;;;;;;;;;;;4943335;28;1143;-74
2022/12/03 10:01:02;;;;;;;;;;;;;;;;;;4940708;28;1314;-73
2022/12/03 10:03:30;;;;;;;;;;;;;;;;;;4947006;28;1958;-73
2022/12/03 10:05:57;;;;;;;;;;;;;;;;;;4948535;28;1076;-74
2022/12/03 10:08:23;;;;;;;;;;;;;;;;;;4947280;28;937;-73
2022/12/03 10:10:51;;;;;;;;;;;;;;;;;;4945936;28;1346;-74
2022/12/03 10:13:19;;;;;;;;;;;;;;;;;;4949532;28;870;-73
2022/12/03 10:15:48;;;;;;;;;;;;;;;;;;4947749;28;937;-76
2022/12/03 10:18:16;;;;;;;;;;;;;;;;;;4944096;28;885;-74
2022/12/03 10:20:44;;;;;;;;;;;;;;;;;;4942794;28;1003;-74
2022/12/03 10:23:18;;;;;;;;;;;;;;;;;;4949891;28;2370;-74
2022/12/03 10:25:49;;;;;;;;;;;;;;;;;;4947867;28;885;-73
2022/12/03 10:28:20;;;;;;;;;;;;;;;;;;4949226;28;937;-74
2022/12/03 10:30:50;;;;;;;;;;;;;;;;;;4942698;28;1692;-73
2022/12/03 10:33:17;;;;;;;;;;;;;;;;;;4947587;28;949;-73
2022/12/03 10:35:45;;;;;;;;;;;;;;;;;;4938781;28;917;-73
2022/12/03 10:38:18;;;;;;;;;;;;;;;;;;4942414;28;894;-73
2022/12/03 10:40:45;;;;;;;;;;;;;;;;;;4943369;28;906;-72
2022/12/03 10:43:12;;;;;;;;;;;;;;;;;;4945936;28;2009;-73
2022/12/03 10:45:39;;;;;;;;;;;;;;;;;;4945576;28;882;-73
2022/12/03 10:48:06;;;;;;;;;;;;;;;;;;4949011;28;799;-73
2022/12/03 10:50:33;;;;;;;;;;;;;;;;;;4940607;28;1171;-73
2022/12/03 10:53:01;;;;;;;;;;;;;;;;;;4938700;28;1464;-74
2022/12/03 10:55:28;;;;;;;;;;;;;;;;;;4942341;28;941;-73
2022/12/03 10:57:54;;;;;;;;;;;;;;;;;;4941051;28;1314;-74
2022/12/03 11:00:22;;;;;;;;;;;;;;;;;;4928467;28;841;-74
2022/12/03 11:02:48;;;;;;;;;;;;;;;;;;4924990;28;1942;-74
2022/12/03 11:05:15;;;;;;;;;;;;;;;;;;4929074;28;902;-74
2022/12/03 11:07:42;;;;;;;;;;;;;;;;;;4925314;28;1107;-74
2022/12/03 11:10:13;;;;;;;;;;;;;;;;;;4923044;28;890;-73
2022/12/03 11:12:40;;;;;;;;;;;;;;;;;;4920005;28;1346;-73
2022/12/03 11:15:07;;;;;;;;;;;;;;;;;;4929733;28;1110;-73
2022/12/03 11:17:41;;;;;;;;;;;;;;;;;;4945063;28;870;-74
2022/12/03 11:20:09;;;;;;;;;;;;;;;;;;4927113;28;1230;-74
2022/12/03 11:22:43;;;;;;;;;;;;;;;;;;4946440;28;1305;-75
2022/12/03 11:25:41;;;;;;;;;;;;;;;;;;4942523;28;1590;-75
2022/12/03 11:28:27;;;;;;;;;;;;;;;;;;4943048;28;806;-75
2022/12/03 11:31:00;;;;;;;;;;;;;;;;;;4923458;28;1389;-75
2022/12/03 11:33:27;;;;;;;;;;;;;;;;;;4942005;28;1140;-74
2022/12/03 11:36:11;;;;;;;;;;;;;;;;;;4951677;28;866;-73
2022/12/03 11:38:51;;;;;;;;;;;;;;;;;;4997376;28;1696;-76
2022/12/03 11:41:19;;;;;;;;;;;;;;;;;;5009330;28;1403;-76
2022/12/03 11:44:04;;;;;;;;;;;;;;;;;;5010727;28;1918;-77
2022/12/03 11:46:37;;;;;;;;;;;;;;;;;;5011480;28;1631;-77
2022/12/03 11:49:05;;;;;;;;;;;;;;;;;;5010671;28;1151;-77
2022/12/03 11:51:32;;;;;;;;;;;;;;;;;;5010784;28;1471;-77
2022/12/03 11:53:58;;;;;;;;;;;;;;;;;;5011794;28;1071;-77
2022/12/03 11:56:26;;;;;;;;;;;;;;;;;;5012026;28;917;-77
2022/12/03 11:58:57;;;;;;;;;;;;;;;;;;5011571;28;813;-77
2022/12/03 12:01:31;;;;;;;;;;;;;;;;;;5011090;28;1416;-77
2022/12/03 12:03:58;;;;;;;;;;;;;;;;;;5003687;28;1902;-75
2022/12/03 12:06:24;;;;;;;;;;;;;;;;;;5010590;28;1421;-77
2022/12/03 12:08:57;;;;;;;;;;;;;;;;;;5007901;28;1397;-76
2022/12/03 12:11:27;;;;;;;;;;;;;;;;;;5005235;28;1401;-77
2022/12/03 12:13:54;;;;;;;;;;;;;;;;;;5010863;28;1470;-77
2022/12/03 12:16:36;;;;;;;;;;;;;;;;;;5009080;28;1474;-77
2022/12/03 12:19:17;;;;;;;;;;;;;;;;;;5008416;28;1743;-77
2022/12/03 12:21:46;;;;;;;;;;;;;;;;;;5005460;28;1788;-77
2022/12/03 12:24:31;;;;;;;;;;;;;;;;;;5010259;28;1922;-76
2022/12/03 12:26:59;;;;;;;;;;;;;;;;;;4993731;28;1257;-77
2022/12/03 12:29:26;;;;;;;;;;;;;;;;;;5012151;28;1390;-77
2022/12/03 12:31:56;;;;;;;;;;;;;;;;;;5008045;28;1679;-76
2022/12/03 12:34:23;;;;;;;;;;;;;;;;;;5002756;28;1380;-77
2022/12/03 12:36:49;;;;;;;;;;;;;;;;;;4992558;28;1425;-77
2022/12/03 12:39:15;;;;;;;;;;;;;;;;;;5009585;28;1391;-76
2022/12/03 12:41:42;;;;;;;;;;;;;;;;;;5008397;28;1653;-77
2022/12/03 12:44:09;;;;;;;;;;;;;;;;;;5009180;28;1914;-77
2022/12/03 12:46:36;;;;;;;;;;;;;;;;;;5009355;28;1781;-77
2022/12/03 12:49:02;;;;;;;;;;;;;;;;;;5009656;28;1446;-76
2022/12/03 12:51:28;;;;;;;;;;;;;;;;;;5009189;28;1553;-76
2022/12/03 12:53:55;;;;;;;;;;;;;;;;;;4997657;28;1333;-75
2022/12/03 12:56:23;;;;;;;;;;;;;;;;;;4926961;28;1310;-74
2022/12/03 12:58:50;;;;;;;;;;;;;;;;;;4943862;28;1282;-74
2022/12/03 13:01:20;;;;;;;;;;;;;;;;;;4945626;28;1257;-74
2022/12/03 13:03:46;;;;;;;;;;;;;;;;;;4924954;28;1966;-74
2022/12/03 13:06:14;;;;;;;;;;;;;;;;;;4958866;28;1295;-74
2022/12/03 13:08:42;;;;;;;;;;;;;;;;;;4949813;28;890;-74
2022/12/03 13:11:10;;;;;;;;;;;;;;;;;;4944554;28;1956;-74
2022/12/03 13:13:38;;;;;;;;;;;;;;;;;;4915861;28;1742;-73
2022/12/03 13:16:06;;;;;;;;;;;;;;;;;;4948184;28;1688;-74
2022/12/03 13:18:38;;;;;;;;;;;;;;;;;;4932206;28;1512;-74
2022/12/03 13:21:26;;;;;;;;;;;;;;;;;;4952972;28;1374;-73
2022/12/03 13:23:53;;;;;;;;;;;;;;;;;;4939987;28;1957;-75
2022/12/03 13:26:22;;;;;;;;;;;;;;;;;;4949693;28;906;-74
2022/12/03 13:28:48;;;;;;;;;;;;;;;;;;4945039;28;1060;-74
2022/12/03 13:31:18;;;;;;;;;;;;;;;;;;4939453;28;1626;-74
2022/12/03 13:33:46;;;;;;;;;;;;;;;;;;4979908;28;1626;-76
2022/12/03 13:36:13;;;;;;;;;;;;;;;;;;5008719;28;1453;-76
2022/12/03 13:38:39;;;;;;;;;;;;;;;;;;5012418;28;1255;-77
2022/12/03 13:42:37;;;;;;;;;;;;;;;;;;5012677;28;1330;-77
2022/12/03 13:43:55;;;;;;;;;;;;;;;;;;5024555;28;1911;-77
2022/12/03 13:46:21;;;;;;;;;;;;;;;;;;5009113;28;1337;-76
2022/12/03 13:48:48;;;;;;;;;;;;;;;;;;5015593;28;1056;-77
2022/12/03 13:51:18;;;;;;;;;;;;;;;;;;5013591;28;1378;-74
2022/12/03 13:53:44;;;;;;;;;;;;;;;;;;5014042;28;866;-77
2022/12/03 13:56:15;;;;;;;;;;;;;;;;;;5013583;28;876;-77
2022/12/03 13:58:41;;;;;;;;;;;;;;;;;;5014024;28;934;-77
2022/12/03 14:01:07;;;;;;;;;;;;;;;;;;5013788;28;1288;-76
2022/12/03 14:03:34;;;;;;;;;;;;;;;;;;5011644;28;1977;-77
2022/12/03 14:06:01;;;;;;;;;;;;;;;;;;5012833;28;1052;-76
2022/12/03 14:08:27;;;;;;;;;;;;;;;;;;5014406;28;1116;-77
2022/12/03 14:10:53;;;;;;;;;;;;;;;;;;5012731;28;1512;-77
2022/12/03 14:13:20;;;;;;;;;;;;;;;;;;5007696;28;1476;-76
2022/12/03 14:15:46;;;;;;;;;;;;;;;;;;5013467;28;1138;-76
2022/12/03 14:18:12;;;;;;;;;;;;;;;;;;5011812;28;2037;-76
2022/12/03 14:20:40;;;;;;;;;;;;;;;;;;5011092;28;2399;-76
2022/12/03 14:23:08;;;;;;;;;;;;;;;;;;4993045;28;1387;-74
2022/12/03 14:25:34;;;;;;;;;;;;;;;;;;4946398;28;1962;-73
2022/12/03 14:28:01;;;;;;;;;;;;;;;;;;4944647;28;870;-73
2022/12/03 14:30:27;;;;;;;;;;;;;;;;;;4966197;28;1226;-74
2022/12/03 14:32:54;;;;;;;;;;;;;;;;;;4946252;28;1306;-75
2022/12/03 14:35:20;;;;;;;;;;;;;;;;;;4947377;28;1125;-74
2022/12/03 14:37:47;;;;;;;;;;;;;;;;;;4929412;28;1140;-74
2022/12/03 14:40:15;;;;;;;;;;;;;;;;;;4944564;28;1597;-74
2022/12/03 14:42:41;;;;;;;;;;;;;;;;;;4946309;28;1401;-74
2022/12/03 14:45:08;;;;;;;;;;;;;;;;;;4928841;28;2003;-74
2022/12/03 14:47:35;;;;;;;;;;;;;;;;;;4927602;28;918;-74
2022/12/03 14:50:01;;;;;;;;;;;;;;;;;;4945666;28;1465;-73
2022/12/03 14:52:28;;;;;;;;;;;;;;;;;;4942974;28;1381;-74
2022/12/03 14:54:54;;;;;;;;;;;;;;;;;;4948751;28;889;-74
2022/12/03 14:57:22;;;;;;;;;;;;;;;;;;4946558;28;944;-74
2022/12/03 14:59:49;;;;;;;;;;;;;;;;;;4949762;28;997;-75
2022/12/03 15:02:15;;;;;;;;;;;;;;;;;;4989294;28;1819;-75
2022/12/03 15:04:41;;;;;;;;;;;;;;;;;;5003569;28;1910;-77
2022/12/03 15:07:08;;;;;;;;;;;;;;;;;;5009297;28;1024;-76
2022/12/03 15:09:34;;;;;;;;;;;;;;;;;;5008795;28;1054;-77
2022/12/03 15:12:02;;;;;;;;;;;;;;;;;;5011138;28;1350;-77
2022/12/03 15:14:29;;;;;;;;;;;;;;;;;;5012336;28;1836;-77
2022/12/03 15:16:56;;;;;;;;;;;;;;;;;;5011967;28;1135;-76
2022/12/03 15:19:22;;;;;;;;;;;;;;;;;;5011907;28;1126;-76
2022/12/03 15:21:48;;;;;;;;;;;;;;;;;;5011239;28;1388;-77
2022/12/03 15:24:17;;;;;;;;;;;;;;;;;;4994587;28;1906;-77
2022/12/03 15:26:45;;;;;;;;;;;;;;;;;;5011901;28;1290;-76
2022/12/03 15:29:14;;;;;;;;;;;;;;;;;;5011837;28;1493;-77
2022/12/03 15:31:41;;;;;;;;;;;;;;;;;;5030128;28;1348;-76
2022/12/03 15:34:09;;;;;;;;;;;;;;;;;;5032856;28;1389;-77
2022/12/03 15:36:36;;;;;;;;;;;;;;;;;;5015851;28;1274;-77
2022/12/03 15:39:03;;;;;;;;;;;;;;;;;;5032851;28;932;-76
2022/12/03 15:41:31;;;;;;;;;;;;;;;;;;5032890;28;1293;-77
2022/12/03 15:44:00;;;;;;;;;;;;;;;;;;5033989;28;790;-77
2022/12/03 15:46:27;;;;;;;;;;;;;;;;;;5014942;28;1975;-77
2022/12/03 15:48:55;;;;;;;;;;;;;;;;;;5033234;28;901;-77
2022/12/03 15:51:22;;;;;;;;;;;;;;;;;;5032049;28;1310;-77
2022/12/03 15:53:51;;;;;;;;;;;;;;;;;;4990026;28;933;-77
2022/12/03 15:56:18;;;;;;;;;;;;;;;;;;5005636;28;1259;-76
2022/12/03 15:58:45;;;;;;;;;;;;;;;;;;5012448;28;1031;-78
2022/12/03 16:01:12;;;;;;;;;;;;;;;;;;5012402;28;1392;-77
2022/12/03 16:03:38;;;;;;;;;;;;;;;;;;5012295;28;878;-76
2022/12/03 16:06:07;;;;;;;;;;;;;;;;;;5013082;28;1910;-78
2022/12/03 16:08:34;;;;;;;;;;;;;;;;;;5002147;28;1086;-77
2022/12/03 16:11:08;;;;;;;;;;;;;;;;;;5022792;28;1464;-77
2022/12/03 16:13:36;;;;;;;;;;;;;;;;;;5015410;28;1139;-77
2022/12/03 16:16:02;;;;;;;;;;;;;;;;;;5022113;28;1211;-76
2022/12/03 16:18:28;;;;;;;;;;;;;;;;;;5031615;28;805;-77
2022/12/03 16:20:55;;;;;;;;;;;;;;;;;;5007846;28;1544;-75
2022/12/03 16:23:22;;;;;;;;;;;;;;;;;;5003680;28;1446;-77
2022/12/03 16:25:49;;;;;;;;;;;;;;;;;;5009029;28;1994;-78
2022/12/03 16:28:15;;;;;;;;;;;;;;;;;;5010616;28;1232;-76
2022/12/03 16:30:41;;;;;;;;;;;;;;;;;;5010468;28;1332;-77
2022/12/03 16:33:07;;;;;;;;;;;;;;;;;;5006584;28;1317;-77
2022/12/03 16:35:34;;;;;;;;;;;;;;;;;;4958325;28;1539;-74
2022/12/03 16:38:00;;;;;;;;;;;;;;;;;;4970882;28;1472;-76
2022/12/03 16:40:28;;;;;;;;;;;;;;;;;;5009416;28;1183;-76
2022/12/03 16:42:55;;;;;;;;;;;;;;;;;;5007894;28;1409;-76
2022/12/03 16:45:32;;;;;;;;;;;;;;;;;;4989321;28;1919;-76
2022/12/03 16:47:59;;;;;;;;;;;;;;;;;;5006878;28;1321;-75
2022/12/03 16:50:25;;;;;;;;;;;;;;;;;;5008267;28;771;-76
2022/12/03 16:52:51;;;;;;;;;;;;;;;;;;5005617;28;1330;-77
2022/12/03 16:55:18;;;;;;;;;;;;;;;;;;5006816;28;1294;-76
2022/12/03 16:57:45;;;;;;;;;;;;;;;;;;5008175;28;1257;-77
2022/12/03 17:00:12;;;;;;;;;;;;;;;;;;5007842;28;1273;-77
2022/12/03 17:02:38;;;;;;;;;;;;;;;;;;5006661;28;1336;-76
2022/12/03 17:05:05;;;;;;;;;;;;;;;;;;5007568;28;1963;-77
2022/12/03 17:07:31;;;;;;;;;;;;;;;;;;5007668;28;1738;-76
2022/12/03 17:09:57;;;;;;;;;;;;;;;;;;5006981;28;1540;-75
2022/12/03 17:12:24;;;;;;;;;;;;;;;;;;5005894;28;1552;-76
2022/12/03 17:14:51;;;;;;;;;;;;;;;;;;5006530;28;1615;-77
2022/12/03 17:17:17;;;;;;;;;;;;;;;;;;5007796;28;1076;-76
2022/12/03 17:19:44;;;;;;;;;;;;;;;;;;5007066;28;1758;-76
2022/12/03 17:22:11;;;;;;;;;;;;;;;;;;5000579;28;1595;-77
2022/12/03 17:24:37;;;;;;;;;;;;;;;;;;5007411;28;1978;-76
2022/12/03 17:27:05;;;;;;;;;;;;;;;;;;5008117;28;1408;-77
2022/12/03 17:29:31;;;;;;;;;;;;;;;;;;5008932;28;1060;-77
2022/12/03 17:31:58;;;;;;;;;;;;;;;;;;5008782;28;1528;-76